sensor_id;sensor_type;location;lat;lon;timestamp;P1;durP1;ratioP1;P2;durP2;ratioP2
15966;SDS011;15175;48.154;11.534;2024-02-14T00:01:47;4.30;;;1.48;;
15966;SDS011;15175;48.154;11.534;2024-02-14T00:07:49;3.45;;;1.15;;
15966;SDS011;15175;48.154;11.534;2024-02-14T00:13:51;2.72;;;0.90;;
15966;SDS011;15175;48.154;11.534;2024-02-14T00:19:55;2.13;;;0.77;;
15966;SDS011;15175;48.154;11.534;2024-02-14T00:25:57;2.38;;;0.85;;
15966;SDS011;15175;48.154;11.534;2024-02-14T00:31:59;2.13;;;0.90;;
15966;SDS011;15175;48.154;11.534;2024-02-14T00:38:03;3.40;;;1.02;;
15966;SDS011;15175;48.154;11.534;2024-02-14T00:56:11;2.45;;;0.95;;
15966;SDS011;15175;48.154;11.534;2024-02-14T01:02:13;3.55;;;0.85;;
15966;SDS011;15175;48.154;11.534;2024-02-14T02:21:04;2.63;;;0.85;;
15966;SDS011;15175;48.154;11.534;2024-02-14T02:27:08;4.53;;;1.00;;
15966;SDS011;15175;48.154;11.534;2024-02-14T02:33:10;1.65;;;0.43;;
15966;SDS011;15175;48.154;11.534;2024-02-14T02:39:13;2.38;;;0.85;;
15966;SDS011;15175;48.154;11.534;2024-02-14T02:45:17;5.03;;;1.20;;
15966;SDS011;15175;48.154;11.534;2024-02-14T02:51:19;2.58;;;0.60;;
15966;SDS011;15175;48.154;11.534;2024-02-14T02:57:22;2.55;;;0.60;;
15966;SDS011;15175;48.154;11.534;2024-02-14T03:03:28;2.40;;;0.60;;
15966;SDS011;15175;48.154;11.534;2024-02-14T03:09:33;1.90;;;0.47;;
15966;SDS011;15175;48.154;11.534;2024-02-14T03:15:35;2.30;;;0.68;;
15966;SDS011;15175;48.154;11.534;2024-02-14T03:21:39;2.70;;;0.63;;
15966;SDS011;15175;48.154;11.534;2024-02-14T03:27:43;3.72;;;0.80;;
15966;SDS011;15175;48.154;11.534;2024-02-14T03:33:47;2.75;;;0.70;;
15966;SDS011;15175;48.154;11.534;2024-02-14T03:39:51;2.85;;;0.50;;
15966;SDS011;15175;48.154;11.534;2024-02-14T03:45:53;1.90;;;0.52;;
15966;SDS011;15175;48.154;11.534;2024-02-14T03:51:56;2.08;;;0.68;;
15966;SDS011;15175;48.154;11.534;2024-02-14T03:58:01;2.05;;;0.70;;
15966;SDS011;15175;48.154;11.534;2024-02-14T04:04:03;0.70;;;0.30;;
15966;SDS011;15175;48.154;11.534;2024-02-14T04:10:06;1.70;;;0.60;;
15966;SDS011;15175;48.154;11.534;2024-02-14T04:16:10;2.38;;;0.95;;
15966;SDS011;15175;48.154;11.534;2024-02-14T04:22:12;3.00;;;0.70;;
15966;SDS011;15175;48.154;11.534;2024-02-14T04:28:15;3.03;;;0.90;;
15966;SDS011;15175;48.154;11.534;2024-02-14T04:34:18;4.22;;;0.90;;
15966;SDS011;15175;48.154;11.534;2024-02-14T04:40:21;2.85;;;0.90;;
15966;SDS011;15175;48.154;11.534;2024-02-14T04:46:23;1.73;;;0.60;;
15966;SDS011;15175;48.154;11.534;2024-02-14T04:52:27;4.70;;;0.80;;
15966;SDS011;15175;48.154;11.534;2024-02-14T04:58:30;4.82;;;1.05;;
15966;SDS011;15175;48.154;11.534;2024-02-14T05:04:32;3.13;;;1.13;;
15966;SDS011;15175;48.154;11.534;2024-02-14T05:10:39;1.55;;;0.75;;
15966;SDS011;15175;48.154;11.534;2024-02-14T05:16:41;3.95;;;1.10;;
15966;SDS011;15175;48.154;11.534;2024-02-14T05:22:44;2.42;;;0.65;;
15966;SDS011;15175;48.154;11.534;2024-02-14T05:28:47;2.05;;;0.75;;
15966;SDS011;15175;48.154;11.534;2024-02-14T05:34:50;2.30;;;0.95;;
15966;SDS011;15175;48.154;11.534;2024-02-14T05:40:52;1.60;;;0.68;;
15966;SDS011;15175;48.154;11.534;2024-02-14T05:46:56;4.35;;;0.80;;
15966;SDS011;15175;48.154;11.534;2024-02-14T05:52:58;6.10;;;0.98;;
15966;SDS011;15175;48.154;11.534;2024-02-14T05:59:01;2.40;;;0.73;;
15966;SDS011;15175;48.154;11.534;2024-02-14T06:05:06;1.35;;;0.50;;
15966;SDS011;15175;48.154;11.534;2024-02-14T06:11:09;5.68;;;1.05;;
15966;SDS011;15175;48.154;11.534;2024-02-14T06:17:13;2.13;;;0.70;;
15966;SDS011;15175;48.154;11.534;2024-02-14T06:23:16;2.60;;;0.63;;
15966;SDS011;15175;48.154;11.534;2024-02-14T06:35:20;3.20;;;0.80;;
15966;SDS011;15175;48.154;11.534;2024-02-14T06:41:24;3.10;;;1.02;;
15966;SDS011;15175;48.154;11.534;2024-02-14T06:47:26;4.32;;;1.15;;
15966;SDS011;15175;48.154;11.534;2024-02-14T06:53:30;8.10;;;1.20;;
15966;SDS011;15175;48.154;11.534;2024-02-14T06:59:34;2.42;;;0.70;;
15966;SDS011;15175;48.154;11.534;2024-02-14T07:05:37;5.05;;;1.10;;
15966;SDS011;15175;48.154;11.534;2024-02-14T07:11:39;2.92;;;1.00;;
15966;SDS011;15175;48.154;11.534;2024-02-14T07:17:43;4.57;;;1.00;;
15966;SDS011;15175;48.154;11.534;2024-02-14T07:29:47;5.38;;;1.08;;
15966;SDS011;15175;48.154;11.534;2024-02-14T07:35:51;3.67;;;0.80;;
15966;SDS011;15175;48.154;11.534;2024-02-14T07:47:57;3.65;;;1.20;;
15966;SDS011;15175;48.154;11.534;2024-02-14T07:54:01;3.50;;;1.02;;
15966;SDS011;15175;48.154;11.534;2024-02-14T08:00:03;3.67;;;0.80;;
15966;SDS011;15175;48.154;11.534;2024-02-14T08:06:08;4.38;;;0.77;;
15966;SDS011;15175;48.154;11.534;2024-02-14T08:12:12;5.57;;;0.98;;
15966;SDS011;15175;48.154;11.534;2024-02-14T08:24:16;3.55;;;0.98;;
15966;SDS011;15175;48.154;11.534;2024-02-14T08:30:20;5.20;;;1.13;;
15966;SDS011;15175;48.154;11.534;2024-02-14T08:42:24;4.85;;;1.17;;
15966;SDS011;15175;48.154;11.534;2024-02-14T08:48:28;3.70;;;0.73;;
15966;SDS011;15175;48.154;11.534;2024-02-14T08:54:34;3.58;;;1.00;;
15966;SDS011;15175;48.154;11.534;2024-02-14T09:00:37;3.72;;;1.10;;
15966;SDS011;15175;48.154;11.534;2024-02-14T09:06:42;5.88;;;1.13;;
15966;SDS011;15175;48.154;11.534;2024-02-14T09:12:44;8.73;;;1.02;;
15966;SDS011;15175;48.154;11.534;2024-02-14T09:18:47;1.70;;;0.73;;
15966;SDS011;15175;48.154;11.534;2024-02-14T09:24:51;2.70;;;0.63;;
15966;SDS011;15175;48.154;11.534;2024-02-14T09:30:53;2.88;;;0.82;;
15966;SDS011;15175;48.154;11.534;2024-02-14T09:36:56;3.90;;;0.70;;
15966;SDS011;15175;48.154;11.534;2024-02-14T09:43:01;4.85;;;1.35;;
15966;SDS011;15175;48.154;11.534;2024-02-14T09:49:06;5.07;;;1.08;;
15966;SDS011;15175;48.154;11.534;2024-02-14T09:55:10;1.70;;;0.60;;
15966;SDS011;15175;48.154;11.534;2024-02-14T10:01:14;2.05;;;0.55;;
15966;SDS011;15175;48.154;11.534;2024-02-14T10:07:17;4.15;;;0.60;;
15966;SDS011;15175;48.154;11.534;2024-02-14T10:13:20;2.15;;;0.57;;
15966;SDS011;15175;48.154;11.534;2024-02-14T10:19:24;2.38;;;0.63;;
15966;SDS011;15175;48.154;11.534;2024-02-14T10:25:26;2.20;;;0.65;;
15966;SDS011;15175;48.154;11.534;2024-02-14T10:31:29;3.42;;;0.90;;
15966;SDS011;15175;48.154;11.534;2024-02-14T10:37:32;4.20;;;0.82;;
15966;SDS011;15175;48.154;11.534;2024-02-14T10:43:34;3.67;;;0.75;;
15966;SDS011;15175;48.154;11.534;2024-02-14T10:49:39;1.42;;;0.50;;
15966;SDS011;15175;48.154;11.534;2024-02-14T10:55:45;5.43;;;0.75;;
15966;SDS011;15175;48.154;11.534;2024-02-14T11:01:50;3.90;;;0.68;;
15966;SDS011;15175;48.154;11.534;2024-02-14T11:07:53;1.92;;;0.60;;
15966;SDS011;15175;48.154;11.534;2024-02-14T11:13:56;4.07;;;0.63;;
15966;SDS011;15175;48.154;11.534;2024-02-14T11:19:59;1.90;;;0.50;;
15966;SDS011;15175;48.154;11.534;2024-02-14T11:26:15;3.83;;;0.68;;
15966;SDS011;15175;48.154;11.534;2024-02-14T11:32:19;2.45;;;1.05;;
15966;SDS011;15175;48.154;11.534;2024-02-14T11:38:23;2.05;;;0.50;;
15966;SDS011;15175;48.154;11.534;2024-02-14T11:44:26;2.15;;;0.70;;
15966;SDS011;15175;48.154;11.534;2024-02-14T11:50:30;1.27;;;0.20;;
15966;SDS011;15175;48.154;11.534;2024-02-14T11:56:33;2.55;;;0.43;;
15966;SDS011;15175;48.154;11.534;2024-02-14T12:02:36;3.08;;;0.93;;
15966;SDS011;15175;48.154;11.534;2024-02-14T12:08:41;1.80;;;0.60;;
15966;SDS011;15175;48.154;11.534;2024-02-14T12:14:43;2.10;;;0.50;;
15966;SDS011;15175;48.154;11.534;2024-02-14T12:20:49;1.23;;;0.45;;
15966;SDS011;15175;48.154;11.534;2024-02-14T12:26:54;3.20;;;1.08;;
15966;SDS011;15175;48.154;11.534;2024-02-14T12:32:59;1.80;;;0.63;;
15966;SDS011;15175;48.154;11.534;2024-02-14T12:39:08;2.90;;;0.60;;
15966;SDS011;15175;48.154;11.534;2024-02-14T12:45:14;3.13;;;0.90;;
15966;SDS011;15175;48.154;11.534;2024-02-14T12:51:17;1.42;;;0.30;;
15966;SDS011;15175;48.154;11.534;2024-02-14T12:57:19;3.25;;;0.98;;
15966;SDS011;15175;48.154;11.534;2024-02-14T13:03:24;2.55;;;0.80;;
15966;SDS011;15175;48.154;11.534;2024-02-14T13:09:26;1.42;;;0.55;;
15966;SDS011;15175;48.154;11.534;2024-02-14T13:15:29;2.22;;;0.68;;
15966;SDS011;15175;48.154;11.534;2024-02-14T13:21:33;1.88;;;0.70;;
15966;SDS011;15175;48.154;11.534;2024-02-14T13:27:35;2.03;;;0.50;;
15966;SDS011;15175;48.154;11.534;2024-02-14T13:33:38;2.22;;;0.50;;
15966;SDS011;15175;48.154;11.534;2024-02-14T13:39:42;1.95;;;0.70;;
15966;SDS011;15175;48.154;11.534;2024-02-14T13:45:44;1.10;;;0.38;;
15966;SDS011;15175;48.154;11.534;2024-02-14T13:51:49;1.63;;;0.47;;
15966;SDS011;15175;48.154;11.534;2024-02-14T14:03:55;0.68;;;0.32;;
15966;SDS011;15175;48.154;11.534;2024-02-14T14:09:58;1.40;;;0.50;;
15966;SDS011;15175;48.154;11.534;2024-02-14T14:16:02;2.72;;;0.50;;
15966;SDS011;15175;48.154;11.534;2024-02-14T14:22:05;2.42;;;0.60;;
15966;SDS011;15175;48.154;11.534;2024-02-14T14:28:09;1.35;;;0.60;;
15966;SDS011;15175;48.154;11.534;2024-02-14T14:34:13;2.45;;;0.60;;
15966;SDS011;15175;48.154;11.534;2024-02-14T14:40:15;1.58;;;0.32;;
15966;SDS011;15175;48.154;11.534;2024-02-14T14:46:18;5.55;;;0.63;;
15966;SDS011;15175;48.154;11.534;2024-02-14T14:52:22;4.85;;;0.70;;
15966;SDS011;15175;48.154;11.534;2024-02-14T14:58:24;2.08;;;0.40;;
15966;SDS011;15175;48.154;11.534;2024-02-14T15:04:27;3.45;;;0.60;;
15966;SDS011;15175;48.154;11.534;2024-02-14T15:10:31;3.60;;;1.13;;
15966;SDS011;15175;48.154;11.534;2024-02-14T15:16:34;3.35;;;0.82;;
15966;SDS011;15175;48.154;11.534;2024-02-14T15:22:36;4.47;;;1.00;;
15966;SDS011;15175;48.154;11.534;2024-02-14T15:28:40;2.88;;;1.00;;
15966;SDS011;15175;48.154;11.534;2024-02-14T15:34:45;2.03;;;0.60;;
15966;SDS011;15175;48.154;11.534;2024-02-14T15:40:48;1.25;;;0.55;;
15966;SDS011;15175;48.154;11.534;2024-02-14T15:46:54;2.38;;;0.52;;
15966;SDS011;15175;48.154;11.534;2024-02-14T15:52:56;2.53;;;0.93;;
15966;SDS011;15175;48.154;11.534;2024-02-14T15:58:58;3.28;;;0.90;;
15966;SDS011;15175;48.154;11.534;2024-02-14T16:05:04;4.15;;;1.17;;
15966;SDS011;15175;48.154;11.534;2024-02-14T16:11:08;5.88;;;1.70;;
15966;SDS011;15175;48.154;11.534;2024-02-14T16:17:10;3.85;;;1.25;;
15966;SDS011;15175;48.154;11.534;2024-02-14T16:23:14;4.95;;;0.90;;
15966;SDS011;15175;48.154;11.534;2024-02-14T16:29:16;3.63;;;0.65;;
15966;SDS011;15175;48.154;11.534;2024-02-14T16:35:18;3.40;;;1.10;;
15966;SDS011;15175;48.154;11.534;2024-02-14T16:41:23;5.93;;;1.30;;
15966;SDS011;15175;48.154;11.534;2024-02-14T16:47:25;6.55;;;1.70;;
15966;SDS011;15175;48.154;11.534;2024-02-14T16:53:27;2.47;;;1.10;;
15966;SDS011;15175;48.154;11.534;2024-02-14T16:59:31;2.83;;;0.82;;
15966;SDS011;15175;48.154;11.534;2024-02-14T17:05:33;13.88;;;1.75;;
15966;SDS011;15175;48.154;11.534;2024-02-14T17:11:36;4.47;;;0.93;;
15966;SDS011;15175;48.154;11.534;2024-02-14T17:17:39;3.72;;;1.25;;
15966;SDS011;15175;48.154;11.534;2024-02-14T17:23:42;4.20;;;1.17;;
15966;SDS011;15175;48.154;11.534;2024-02-14T17:29:45;6.20;;;2.33;;
15966;SDS011;15175;48.154;11.534;2024-02-14T17:35:49;4.80;;;1.80;;
15966;SDS011;15175;48.154;11.534;2024-02-14T17:41:51;8.00;;;0.95;;
15966;SDS011;15175;48.154;11.534;2024-02-14T17:47:53;7.65;;;1.42;;
15966;SDS011;15175;48.154;11.534;2024-02-14T17:53:57;2.85;;;1.17;;
15966;SDS011;15175;48.154;11.534;2024-02-14T17:59:59;7.38;;;1.80;;
15966;SDS011;15175;48.154;11.534;2024-02-14T18:06:11;3.05;;;1.00;;
15966;SDS011;15175;48.154;11.534;2024-02-14T18:12:15;4.10;;;1.50;;
15966;SDS011;15175;48.154;11.534;2024-02-14T18:18:17;4.82;;;1.30;;
15966;SDS011;15175;48.154;11.534;2024-02-14T18:24:20;5.13;;;2.03;;
15966;SDS011;15175;48.154;11.534;2024-02-14T18:30:25;6.68;;;1.88;;
15966;SDS011;15175;48.154;11.534;2024-02-14T18:36:29;7.53;;;2.17;;
15966;SDS011;15175;48.154;11.534;2024-02-14T18:42:31;11.07;;;2.72;;
15966;SDS011;15175;48.154;11.534;2024-02-14T18:48:35;4.80;;;1.52;;
15966;SDS011;15175;48.154;11.534;2024-02-14T18:54:39;4.70;;;1.73;;
15966;SDS011;15175;48.154;11.534;2024-02-14T19:00:41;4.68;;;1.40;;
15966;SDS011;15175;48.154;11.534;2024-02-14T19:06:46;6.20;;;1.83;;
15966;SDS011;15175;48.154;11.534;2024-02-14T19:12:48;3.85;;;1.45;;
15966;SDS011;15175;48.154;11.534;2024-02-14T19:18:51;4.72;;;1.63;;
15966;SDS011;15175;48.154;11.534;2024-02-14T19:24:54;2.50;;;0.95;;
15966;SDS011;15175;48.154;11.534;2024-02-14T19:30:57;4.35;;;0.95;;
15966;SDS011;15175;48.154;11.534;2024-02-14T19:36:59;5.38;;;1.40;;
15966;SDS011;15175;48.154;11.534;2024-02-14T19:43:03;3.72;;;1.10;;
15966;SDS011;15175;48.154;11.534;2024-02-14T19:49:05;5.03;;;1.85;;
15966;SDS011;15175;48.154;11.534;2024-02-14T19:55:09;3.40;;;0.93;;
15966;SDS011;15175;48.154;11.534;2024-02-14T20:01:13;5.53;;;1.70;;
15966;SDS011;15175;48.154;11.534;2024-02-14T20:07:16;4.22;;;1.27;;
15966;SDS011;15175;48.154;11.534;2024-02-14T20:13:18;4.10;;;1.00;;
15966;SDS011;15175;48.154;11.534;2024-02-14T20:19:22;3.75;;;1.10;;
15966;SDS011;15175;48.154;11.534;2024-02-14T20:25:24;3.17;;;1.10;;
15966;SDS011;15175;48.154;11.534;2024-02-14T20:31:26;3.10;;;1.05;;
15966;SDS011;15175;48.154;11.534;2024-02-14T20:37:32;3.30;;;1.20;;
15966;SDS011;15175;48.154;11.534;2024-02-14T20:43:35;2.97;;;1.10;;
15966;SDS011;15175;48.154;11.534;2024-02-14T20:49:38;4.57;;;1.35;;
15966;SDS011;15175;48.154;11.534;2024-02-14T20:55:41;3.25;;;1.00;;
15966;SDS011;15175;48.154;11.534;2024-02-14T21:01:44;3.55;;;1.20;;
15966;SDS011;15175;48.154;11.534;2024-02-14T21:07:47;3.03;;;1.40;;
15966;SDS011;15175;48.154;11.534;2024-02-14T21:13:50;4.07;;;1.30;;
15966;SDS011;15175;48.154;11.534;2024-02-14T21:19:53;3.20;;;1.42;;
15966;SDS011;15175;48.154;11.534;2024-02-14T21:25:55;3.75;;;1.40;;
15966;SDS011;15175;48.154;11.534;2024-02-14T21:31:59;3.88;;;1.85;;
15966;SDS011;15175;48.154;11.534;2024-02-14T21:38:01;3.88;;;1.27;;
15966;SDS011;15175;48.154;11.534;2024-02-14T21:44:04;4.68;;;1.30;;
15966;SDS011;15175;48.154;11.534;2024-02-14T21:50:08;3.70;;;1.33;;
15966;SDS011;15175;48.154;11.534;2024-02-14T21:56:11;2.70;;;1.10;;
15966;SDS011;15175;48.154;11.534;2024-02-14T22:02:13;4.05;;;1.33;;
15966;SDS011;15175;48.154;11.534;2024-02-14T22:08:17;3.05;;;1.00;;
15966;SDS011;15175;48.154;11.534;2024-02-14T22:14:20;3.30;;;1.00;;
15966;SDS011;15175;48.154;11.534;2024-02-14T22:20:23;2.75;;;1.15;;
15966;SDS011;15175;48.154;11.534;2024-02-14T22:26:27;3.63;;;1.17;;
15966;SDS011;15175;48.154;11.534;2024-02-14T22:32:29;2.50;;;1.08;;
15966;SDS011;15175;48.154;11.534;2024-02-14T22:38:32;2.50;;;1.13;;
15966;SDS011;15175;48.154;11.534;2024-02-14T22:44:38;4.05;;;0.82;;
15966;SDS011;15175;48.154;11.534;2024-02-14T22:50:40;2.90;;;0.93;;
15966;SDS011;15175;48.154;11.534;2024-02-14T22:56:42;3.30;;;1.00;;
15966;SDS011;15175;48.154;11.534;2024-02-14T23:02:46;2.63;;;0.90;;
15966;SDS011;15175;48.154;11.534;2024-02-14T23:08:48;1.92;;;0.73;;
15966;SDS011;15175;48.154;11.534;2024-02-14T23:14:50;2.55;;;0.82;;
15966;SDS011;15175;48.154;11.534;2024-02-14T23:20:54;2.28;;;0.75;;
15966;SDS011;15175;48.154;11.534;2024-02-14T23:26:56;3.22;;;1.10;;
15966;SDS011;15175;48.154;11.534;2024-02-14T23:32:58;3.20;;;1.08;;
15966;SDS011;15175;48.154;11.534;2024-02-14T23:39:02;3.25;;;0.80;;
15966;SDS011;15175;48.154;11.534;2024-02-14T23:45:05;4.32;;;0.90;;
15966;SDS011;15175;48.154;11.534;2024-02-14T23:51:07;4.82;;;1.15;;
15966;SDS011;15175;48.154;11.534;2024-02-14T23:57:11;3.55;;;0.73;;
